Time;durP1;ratioP1;P1;durP2;ratioP2;P2;SDS_P1;SDS_P2;PMS_P1;PMS_P2;Temp;Humidity;BMP_temperature;BMP_pressure;BME280_temperature;BME280_humidity;BME280_pressure;Samples;Min_cycle;Max_cycle;Signal;HPM_P1;HPM_P2
2023/07/28 00:01:38;;;;;;;4.40;1.50;;;20.70;72.00;;;;;;5015051;28;20493;-71
2023/07/28 00:04:07;;;;;;;2.40;1.52;;;20.70;71.70;;;;;;5016288;28;20351;-71
2023/07/28 00:06:33;;;;;;;9.00;1.90;;;20.70;71.80;;;;;;5016361;28;20034;-71
2023/07/28 00:08:59;;;;;;;2.78;1.80;;;20.70;71.70;;;;;;5016139;28;20076;-71
2023/07/28 00:11:24;;;;;;;3.75;1.45;;;20.70;72.10;;;;;;5016064;28;20053;-71
2023/07/28 00:13:50;;;;;;;2.90;1.60;;;20.70;72.10;;;;;;5015879;28;20034;-71
2023/07/28 00:16:16;;;;;;;6.72;1.70;;;20.70;72.80;;;;;;5015911;28;20018;-71
2023/07/28 00:18:41;;;;;;;2.50;1.50;;;20.70;73.50;;;;;;5015915;28;20105;-71
2023/07/28 00:21:07;;;;;;;7.53;2.10;;;20.70;74.20;;;;;;5015588;28;20049;-71
2023/07/28 00:23:33;;;;;;;4.90;1.60;;;20.60;75.30;;;;;;5015792;28;20096;-71
2023/07/28 00:25:59;;;;;;;2.13;1.35;;;20.60;75.40;;;;;;5015815;28;20030;-71
2023/07/28 00:28:24;;;;;;;4.95;1.70;;;20.60;75.40;;;;;;5015800;28;20033;-71
2023/07/28 00:30:50;;;;;;;5.65;1.75;;;20.60;74.80;;;;;;5015733;28;20024;-71
2023/07/28 00:33:17;;;;;;;2.10;1.48;;;20.60;74.70;;;;;;5015828;28;20026;-71
2023/07/28 00:35:43;;;;;;;2.90;1.63;;;20.60;74.10;;;;;;5015902;28;20053;-71
2023/07/28 00:38:09;;;;;;;2.05;1.45;;;20.60;73.60;;;;;;5015167;28;20490;-71
2023/07/28 00:40:36;;;;;;;5.13;1.70;;;20.60;73.10;;;;;;5015676;28;20037;-70
2023/07/28 00:43:02;;;;;;;4.13;1.50;;;20.60;72.90;;;;;;5015133;28;20498;-71
2023/07/28 00:45:29;;;;;;;1.73;1.40;;;20.70;72.50;;;;;;5015561;28;20025;-71
2023/07/28 00:47:57;;;;;;;4.63;1.88;;;20.60;72.00;;;;;;5015591;28;20033;-71
2023/07/28 00:50:24;;;;;;;5.40;1.70;;;20.60;71.60;;;;;;5015396;28;20014;-71
2023/07/28 00:52:51;;;;;;;5.82;2.13;;;20.60;71.50;;;;;;5015270;28;20117;-71
2023/07/28 00:55:16;;;;;;;2.97;1.67;;;20.60;71.30;;;;;;5015065;28;20375;-71
2023/07/28 00:57:42;;;;;;;2.22;1.48;;;20.60;71.50;;;;;;5014294;28;20037;-72
2023/07/28 01:00:09;;;;;;;1.98;1.45;;;20.60;71.70;;;;;;5012371;28;20036;-71
2023/07/28 01:02:36;;;;;;;4.00;1.42;;;20.60;71.50;;;;;;5012451;28;20030;-71
2023/07/28 01:05:02;;;;;;;2.42;1.50;;;20.60;71.70;;;;;;5013551;28;20478;-71
2023/07/28 01:07:50;;;;;;;3.78;1.63;;;20.60;71.80;;;;;;5014810;28;20036;-71
2023/07/28 01:10:24;;;;;;;4.78;1.98;;;20.60;72.00;;;;;;5014535;28;20026;-71
2023/07/28 01:12:50;;;;;;;2.10;1.27;;;20.60;72.70;;;;;;5014484;28;20109;-71
2023/07/28 01:15:16;;;;;;;5.35;1.90;;;20.60;73.10;;;;;;5014819;28;20117;-71
2023/07/28 01:17:42;;;;;;;3.38;1.63;;;20.60;73.60;;;;;;5015185;28;20030;-71
2023/07/28 01:20:08;;;;;;;7.65;1.50;;;20.60;72.80;;;;;;5014694;28;20021;-71
2023/07/28 01:22:34;;;;;;;1.95;1.40;;;20.60;71.80;;;;;;5014707;28;20060;-71
2023/07/28 01:25:18;;;;;;;4.80;1.50;;;20.60;71.20;;;;;;5014673;28;20026;-71
2023/07/28 01:27:45;;;;;;;6.25;1.30;;;20.60;71.20;;;;;;5014508;28;20041;-72
2023/07/28 01:30:11;;;;;;;4.55;1.63;;;20.50;71.40;;;;;;5013615;28;20092;-71
2023/07/28 01:32:37;;;;;;;6.68;1.63;;;20.50;72.00;;;;;;5013584;28;20065;-71
2023/07/28 01:35:03;;;;;;;3.72;1.45;;;20.50;72.00;;;;;;5014191;28;20053;-72
2023/07/28 01:37:29;;;;;;;4.85;1.50;;;20.60;72.00;;;;;;5014634;28;20029;-71
2023/07/28 01:39:57;;;;;;;2.55;1.42;;;20.50;71.80;;;;;;5014453;28;20022;-71
2023/07/28 01:42:23;;;;;;;3.40;1.48;;;20.50;71.60;;;;;;5013006;28;20054;-71
2023/07/28 01:44:49;;;;;;;4.55;1.45;;;20.40;71.60;;;;;;5014714;28;20029;-71
2023/07/28 01:47:15;;;;;;;3.85;1.45;;;20.40;71.80;;;;;;5014214;28;20029;-70
2023/07/28 01:49:41;;;;;;;4.05;1.58;;;20.40;72.50;;;;;;5013743;28;20101;-71
2023/07/28 01:52:07;;;;;;;2.92;1.67;;;20.40;73.50;;;;;;5014095;28;20018;-70
2023/07/28 01:54:32;;;;;;;4.63;1.80;;;20.40;73.90;;;;;;5014307;28;20022;-71
2023/07/28 01:56:58;;;;;;;2.05;1.50;;;20.40;73.90;;;;;;5013982;28;20104;-71
2023/07/28 01:59:24;;;;;;;3.28;1.40;;;20.30;73.70;;;;;;5014397;28;20037;-71
2023/07/28 02:01:50;;;;;;;7.43;1.38;;;20.30;73.50;;;;;;5014331;28;20125;-71
2023/07/28 02:04:16;;;;;;;1.75;1.20;;;20.30;73.50;;;;;;5013661;28;20030;-71
2023/07/28 02:06:42;;;;;;;4.50;1.40;;;20.30;73.60;;;;;;5013647;28;20041;-71
2023/07/28 02:09:08;;;;;;;2.72;1.55;;;20.30;73.90;;;;;;5013849;28;20018;-71
2023/07/28 02:11:33;;;;;;;5.97;2.22;;;20.30;73.90;;;;;;5014156;28;20037;-71
2023/07/28 02:13:59;;;;;;;4.20;1.98;;;20.30;74.10;;;;;;5013859;28;20018;-71
2023/07/28 02:16:27;;;;;;;3.03;1.80;;;20.20;73.80;;;;;;5013907;28;20105;-71
2023/07/28 02:18:54;;;;;;;6.43;1.80;;;20.20;73.70;;;;;;5013679;28;20028;-71
2023/07/28 02:21:20;;;;;;;2.72;1.70;;;20.20;74.00;;;;;;5013933;28;20030;-71
2023/07/28 02:23:45;;;;;;;2.15;1.40;;;20.20;74.10;;;;;;5013853;28;20386;-71
2023/07/28 02:26:11;;;;;;;2.85;1.55;;;20.20;74.40;;;;;;5013526;28;20378;-70
2023/07/28 02:28:37;;;;;;;5.65;1.92;;;20.10;74.80;;;;;;5013684;28;20022;-70
2023/07/28 02:31:03;;;;;;;2.70;1.50;;;20.10;75.00;;;;;;5013740;28;20057;-71
2023/07/28 02:33:35;;;;;;;1.85;1.60;;;20.10;75.10;;;;;;5013522;28;20022;-70
2023/07/28 02:36:00;;;;;;;;;;;20.10;75.20;;;;;;5014025;28;20117;-71
2023/07/28 02:38:26;;;;;;;4.68;2.25;;;20.00;75.00;;;;;;5013341;28;20416;-71
2023/07/28 02:40:52;;;;;;;4.70;1.55;;;20.00;75.10;;;;;;5013055;28;20093;-71
2023/07/28 02:43:18;;;;;;;4.18;1.65;;;20.00;75.50;;;;;;5013546;28;20087;-69
2023/07/28 02:45:47;;;;;;;6.47;1.70;;;19.90;75.80;;;;;;5013508;28;20097;-70
2023/07/28 02:48:13;;;;;;;7.40;1.45;;;19.90;76.10;;;;;;5013328;28;20029;-71
2023/07/28 02:50:38;;;;;;;4.45;1.58;;;19.90;76.30;;;;;;5013304;28;20052;-70
2023/07/28 02:53:04;;;;;;;5.07;1.58;;;19.90;76.50;;;;;;5013328;28;20022;-70
2023/07/28 02:55:30;;;;;;;3.83;1.50;;;19.80;76.90;;;;;;5013423;28;20018;-70
2023/07/28 02:57:55;;;;;;;5.13;1.70;;;19.90;76.50;;;;;;5013073;28;20105;-70
2023/07/28 03:00:21;;;;;;;2.25;1.48;;;19.80;76.70;;;;;;5012860;28;20022;-70
2023/07/28 03:02:47;;;;;;;2.22;1.50;;;19.80;76.70;;;;;;5018541;28;20033;-70
2023/07/28 03:05:13;;;;;;;6.70;1.40;;;19.80;76.70;;;;;;5032731;28;20025;-70
2023/07/28 03:07:38;;;;;;;3.47;1.67;;;19.80;76.70;;;;;;5032823;28;20033;-71
2023/07/28 03:10:05;;;;;;;4.45;1.20;;;19.70;76.40;;;;;;5032904;28;20431;-70
2023/07/28 03:12:30;;;;;;;4.03;1.50;;;19.80;76.40;;;;;;5032879;28;20440;-70
2023/07/28 03:14:56;;;;;;;2.92;1.38;;;19.70;76.40;;;;;;5032164;28;20025;-71
2023/07/28 03:17:22;;;;;;;4.10;1.50;;;19.70;76.50;;;;;;5032619;28;20480;-70
2023/07/28 03:19:48;;;;;;;3.60;1.45;;;19.70;76.80;;;;;;5032904;28;20022;-71
2023/07/28 03:22:13;;;;;;;2.83;1.30;;;19.60;77.00;;;;;;5032797;28;20052;-71
2023/07/28 03:24:39;;;;;;;6.00;1.63;;;19.60;77.20;;;;;;5033020;28;20029;-70
2023/07/28 03:27:05;;;;;;;3.25;1.60;;;19.60;77.20;;;;;;5032534;28;20112;-70
2023/07/28 03:29:31;;;;;;;3.30;1.33;;;19.70;77.00;;;;;;5031512;28;20036;-70
2023/07/28 03:31:56;;;;;;;3.83;1.50;;;19.60;76.80;;;;;;5032565;28;20030;-70
2023/07/28 03:34:22;;;;;;;2.65;1.65;;;19.60;76.70;;;;;;5032580;28;20029;-70
2023/07/28 03:36:48;;;;;;;3.40;1.77;;;19.60;76.70;;;;;;5032621;28;20107;-70
2023/07/28 03:39:13;;;;;;;2.70;1.40;;;19.60;76.70;;;;;;5032451;28;20025;-71
2023/07/28 03:41:39;;;;;;;4.13;1.60;;;19.60;76.70;;;;;;5032248;28;20045;-70
2023/07/28 03:44:05;;;;;;;2.17;1.30;;;19.50;77.00;;;;;;5031139;28;20025;-70
2023/07/28 03:46:31;;;;;;;4.38;1.60;;;19.50;77.40;;;;;;5032443;28;20476;-70
2023/07/28 03:48:58;;;;;;;4.68;1.35;;;19.50;77.60;;;;;;5032472;28;20032;-71
2023/07/28 03:51:24;;;;;;;4.28;1.30;;;19.50;77.80;;;;;;5032455;28;20020;-70
2023/07/28 03:53:49;;;;;;;4.90;1.65;;;19.50;78.10;;;;;;5032430;28;20388;-71
2023/07/28 03:56:15;;;;;;;6.80;1.67;;;19.50;78.20;;;;;;5032293;28;20084;-70
2023/07/28 03:58:41;;;;;;;7.82;1.67;;;19.40;78.20;;;;;;5032080;28;20030;-70
2023/07/28 04:01:08;;;;;;;3.13;1.10;;;19.40;78.50;;;;;;5032050;28;20088;-71
2023/07/28 04:03:34;;;;;;;8.30;1.73;;;19.40;78.80;;;;;;5030796;28;20032;-71
2023/07/28 04:06:00;;;;;;;2.53;1.60;;;19.40;79.10;;;;;;5032159;28;20033;-71
2023/07/28 04:08:25;;;;;;;7.00;1.67;;;19.40;79.20;;;;;;5032327;28;20025;-71
2023/07/28 04:10:51;;;;;;;3.40;1.70;;;19.40;79.30;;;;;;5029815;28;20069;-72
2023/07/28 04:13:17;;;;;;;2.17;1.42;;;19.40;79.00;;;;;;5031529;28;20075;-71
2023/07/28 04:15:43;;;;;;;2.22;1.42;;;19.40;78.80;;;;;;5027683;28;20087;-71
2023/07/28 04:18:08;;;;;;;2.45;1.15;;;19.40;78.70;;;;;;5015847;28;20359;-71
2023/07/28 04:20:34;;;;;;;8.35;1.42;;;19.40;78.90;;;;;;5015718;28;20496;-71
2023/07/28 04:23:00;;;;;;;3.22;1.30;;;19.40;78.80;;;;;;5015407;28;20032;-71
2023/07/28 04:25:26;;;;;;;2.33;1.38;;;19.40;78.80;;;;;;5015458;28;20685;-71
2023/07/28 04:27:51;;;;;;;3.88;1.40;;;19.40;78.90;;;;;;5015577;28;20030;-71
2023/07/28 04:30:17;;;;;;;3.97;1.40;;;19.40;78.80;;;;;;5015837;28;20061;-71
2023/07/28 04:32:43;;;;;;;3.88;1.15;;;19.40;78.50;;;;;;5015384;28;20088;-70
2023/07/28 04:35:09;;;;;;;2.63;1.52;;;19.40;78.20;;;;;;5015586;28;20100;-71
2023/07/28 04:37:34;;;;;;;2.13;1.35;;;19.40;78.20;;;;;;5015709;28;20101;-71
2023/07/28 04:40:00;;;;;;;4.68;1.50;;;19.40;78.30;;;;;;5015395;28;20101;-70
2023/07/28 04:42:26;;;;;;;6.28;1.30;;;19.40;78.50;;;;;;5014678;28;20050;-71
2023/07/28 04:44:51;;;;;;;2.78;1.35;;;19.40;78.70;;;;;;5029011;28;20053;-71
2023/07/28 04:47:17;;;;;;;4.82;1.38;;;19.50;79.30;;;;;;5034620;28;20124;-71
2023/07/28 04:49:43;;;;;;;3.25;1.40;;;19.50;79.50;;;;;;5034631;28;20105;-71
2023/07/28 04:52:09;;;;;;;3.38;1.13;;;19.50;80.20;;;;;;5034470;28;20029;-71
2023/07/28 04:54:35;;;;;;;5.95;1.40;;;19.60;80.60;;;;;;5049719;28;20108;-71
2023/07/28 04:57:00;;;;;;;6.75;1.80;;;19.60;80.80;;;;;;5034122;28;20029;-71
2023/07/28 04:59:26;;;;;;;13.45;1.95;;;19.60;80.70;;;;;;5034420;28;20032;-71
2023/07/28 05:01:52;;;;;;;4.15;1.75;;;19.60;80.60;;;;;;5034572;28;20028;-71
2023/07/28 05:04:19;;;;;;;6.70;1.50;;;19.60;81.10;;;;;;5032789;28;20416;-71
2023/07/28 05:06:44;;;;;;;3.35;1.70;;;19.70;81.80;;;;;;5034311;28;20090;-71
2023/07/28 05:09:10;;;;;;;5.60;1.63;;;19.70;81.90;;;;;;5034422;28;20491;-72
2023/07/28 05:11:36;;;;;;;6.05;1.40;;;19.60;82.20;;;;;;5033794;28;20033;-71
2023/07/28 05:14:01;;;;;;;5.30;2.25;;;19.60;82.30;;;;;;5015010;28;20026;-71
2023/07/28 05:16:27;;;;;;;5.13;1.35;;;19.60;82.90;;;;;;5014972;28;20041;-71
2023/07/28 05:18:53;;;;;;;5.85;2.22;;;19.60;82.90;;;;;;5014757;28;20029;-72
2023/07/28 05:21:19;;;;;;;6.75;1.35;;;19.70;82.90;;;;;;5014633;28;20030;-71
2023/07/28 05:23:44;;;;;;;2.63;1.27;;;19.70;82.80;;;;;;5014638;28;20026;-72
2023/07/28 05:26:10;;;;;;;4.93;1.48;;;19.80;82.30;;;;;;5014366;28;20030;-72
2023/07/28 05:28:36;;;;;;;3.15;1.35;;;19.80;81.70;;;;;;5014769;28;20500;-72
2023/07/28 05:31:06;;;;;;;2.75;1.13;;;19.90;80.40;;;;;;5014697;28;20022;-74
2023/07/28 05:33:31;;;;;;;1.63;1.20;;;19.90;80.10;;;;;;5023080;28;20481;-72
2023/07/28 05:36:04;;;;;;;4.97;1.55;;;19.90;79.90;;;;;;5033737;28;20031;-73
2023/07/28 05:38:30;;;;;;;2.28;1.50;;;19.90;79.70;;;;;;5033892;28;20080;-73
2023/07/28 05:41:00;;;;;;;3.50;1.60;;;20.00;80.00;;;;;;5033804;28;20021;-74
2023/07/28 05:43:27;;;;;;;3.05;1.60;;;20.00;80.00;;;;;;5033882;28;20041;-73
2023/07/28 05:45:53;;;;;;;3.72;1.60;;;20.00;79.80;;;;;;5033617;28;20022;-70
2023/07/28 05:48:19;;;;;;;2.78;1.45;;;20.00;79.50;;;;;;5033796;28;20108;-69
2023/07/28 05:50:44;;;;;;;6.78;1.73;;;20.00;79.10;;;;;;5033785;28;20089;-68
2023/07/28 05:53:10;;;;;;;3.08;1.35;;;20.00;78.90;;;;;;5033694;28;20036;-68
2023/07/28 05:55:36;;;;;;;5.30;2.38;;;20.00;79.20;;;;;;5033448;28;20052;-68
2023/07/28 05:58:02;;;;;;;4.10;1.60;;;20.10;79.20;;;;;;5033760;28;20109;-68
2023/07/28 06:00:28;;;;;;;4.07;1.70;;;20.10;79.50;;;;;;5033563;28;20186;-68
2023/07/28 06:02:53;;;;;;;4.47;1.50;;;20.10;79.90;;;;;;5033346;28;20030;-68
2023/07/28 06:05:25;;;;;;;3.42;1.60;;;20.10;80.10;;;;;;5033518;28;20029;-67
2023/07/28 06:10:49;;;;;;;5.65;1.52;;;20.10;80.40;;;;;;5024228;28;20018;-66
2023/07/28 06:13:15;;;;;;;2.85;1.40;;;20.20;80.10;;;;;;5031965;28;20045;-65
2023/07/28 06:15:42;;;;;;;3.22;1.70;;;20.20;79.90;;;;;;5033121;28;20028;-65
2023/07/28 06:18:08;;;;;;;7.65;1.40;;;20.20;79.80;;;;;;5031750;28;20389;-66
2023/07/28 06:20:37;;;;;;;1.90;1.38;;;20.20;80.00;;;;;;5032971;28;20022;-66
2023/07/28 06:23:03;;;;;;;5.95;1.92;;;20.30;80.60;;;;;;5032266;28;20075;-69
2023/07/28 06:25:28;;;;;;;5.47;1.60;;;20.30;80.20;;;;;;5031616;28;20030;-67
2023/07/28 06:27:54;;;;;;;3.90;1.50;;;20.30;79.50;;;;;;5032883;28;20041;-67
2023/07/28 06:30:20;;;;;;;9.25;1.60;;;20.40;79.20;;;;;;5032901;28;20025;-66
2023/07/28 06:32:46;;;;;;;3.20;1.58;;;20.40;80.00;;;;;;5031678;28;20048;-66
2023/07/28 06:35:15;;;;;;;3.40;1.30;;;20.40;79.30;;;;;;5032069;28;20029;-67
2023/07/28 06:37:50;;;;;;;3.42;1.42;;;20.50;79.40;;;;;;5031450;28;20504;-66
2023/07/28 06:40:16;;;;;;;4.65;1.48;;;20.60;78.90;;;;;;5033071;28;20022;-67
2023/07/28 06:42:41;;;;;;;3.88;1.23;;;20.50;78.60;;;;;;5032560;28;20049;-67
2023/07/28 06:45:07;;;;;;;2.28;1.23;;;20.60;78.60;;;;;;5032787;28;20381;-68
2023/07/28 06:47:34;;;;;;;1.70;1.30;;;20.70;78.80;;;;;;5032899;28;20032;-70
2023/07/28 06:49:59;;;;;;;2.78;1.30;;;20.70;78.90;;;;;;5032806;28;20024;-67
2023/07/28 06:52:25;;;;;;;4.07;1.63;;;20.70;79.20;;;;;;5032775;28;20038;-68
2023/07/28 06:54:54;;;;;;;2.65;1.48;;;20.80;78.80;;;;;;5031573;28;20095;-68
2023/07/28 06:57:20;;;;;;;5.57;1.52;;;20.80;78.90;;;;;;5032812;28;20029;-70
2023/07/28 06:59:46;;;;;;;3.13;1.40;;;20.80;79.20;;;;;;5032722;28;20040;-68
2023/07/28 07:02:12;;;;;;;2.47;1.30;;;20.90;79.00;;;;;;5032385;28;20022;-66
2023/07/28 07:04:38;;;;;;;3.42;1.40;;;20.90;78.60;;;;;;5032788;28;20097;-67
2023/07/28 07:07:04;;;;;;;4.45;1.35;;;20.90;78.20;;;;;;5032504;28;20493;-67
2023/07/28 07:09:30;;;;;;;2.10;1.30;;;20.90;78.20;;;;;;5033050;28;20025;-68
2023/07/28 07:11:55;;;;;;;4.40;1.40;;;21.00;78.60;;;;;;5032852;28;20026;-67
2023/07/28 07:14:21;;;;;;;1.65;1.23;;;21.00;78.50;;;;;;5032897;28;20048;-67
2023/07/28 07:16:48;;;;;;;3.53;1.40;;;21.10;78.90;;;;;;5032667;28;20362;-67
2023/07/28 07:19:15;;;;;;;1.90;1.17;;;21.20;79.10;;;;;;5032814;28;20040;-67
2023/07/28 07:21:41;;;;;;;2.38;1.27;;;21.20;78.60;;;;;;5032781;28;20022;-67
2023/07/28 07:24:09;;;;;;;2.53;1.40;;;21.30;78.50;;;;;;5032741;28;20025;-69
2023/07/28 07:26:35;;;;;;;3.63;1.50;;;21.40;78.00;;;;;;5032817;28;20030;-67
2023/07/28 07:29:01;;;;;;;2.38;1.00;;;21.30;77.50;;;;;;5032537;28;20079;-69
2023/07/28 07:31:27;;;;;;;2.40;1.30;;;21.40;77.50;;;;;;5032824;28;20030;-68
2023/07/28 07:33:52;;;;;;;3.47;1.48;;;21.40;77.10;;;;;;5032781;28;20032;-68
2023/07/28 07:36:19;;;;;;;3.63;1.30;;;21.50;77.20;;;;;;5032616;28;20017;-67
2023/07/28 07:38:46;;;;;;;3.85;1.40;;;21.50;77.40;;;;;;5032316;28;20033;-68
2023/07/28 07:41:15;;;;;;;3.53;1.10;;;21.60;77.60;;;;;;5032244;28;20381;-68
2023/07/28 07:43:52;;;;;;;2.22;1.30;;;21.60;77.60;;;;;;5032243;28;20029;-66
2023/07/28 07:46:19;;;;;;;4.18;1.33;;;21.70;77.60;;;;;;5030983;28;20033;-67
2023/07/28 07:48:45;;;;;;;4.75;1.83;;;21.70;77.80;;;;;;5033476;28;20025;-67
2023/07/28 07:51:11;;;;;;;11.27;2.75;;;21.70;78.10;;;;;;5034952;28;20136;-68
2023/07/28 07:53:37;;;;;;;1.90;1.27;;;21.70;77.90;;;;;;5036058;28;20029;-66
2023/07/28 07:56:04;;;;;;;2.42;1.48;;;21.80;78.20;;;;;;5035943;28;20533;-66
2023/07/28 07:58:30;;;;;;;2.90;1.33;;;21.80;78.80;;;;;;5035822;28;20378;-67
2023/07/28 08:00:56;;;;;;;3.63;1.33;;;21.90;79.60;;;;;;5035725;28;20364;-67
2023/07/28 08:03:22;;;;;;;2.33;1.17;;;21.90;79.00;;;;;;5035626;28;20064;-67
2023/07/28 08:05:48;;;;;;;2.75;1.42;;;22.00;79.10;;;;;;5035850;28;20052;-67
2023/07/28 08:08:17;;;;;;;2.60;1.45;;;22.10;78.30;;;;;;5035835;28;20022;-67
2023/07/28 08:10:43;;;;;;;2.45;1.30;;;22.10;78.10;;;;;;5035701;28;20137;-67
2023/07/28 08:13:09;;;;;;;2.05;1.30;;;22.20;79.00;;;;;;5035616;28;20071;-67
2023/07/28 08:15:35;;;;;;;2.65;1.60;;;22.30;78.90;;;;;;5035675;28;20028;-70
2023/07/28 08:18:01;;;;;;;5.45;1.42;;;22.30;78.80;;;;;;5035688;28;20104;-69
2023/07/28 08:20:27;;;;;;;5.13;1.45;;;22.40;79.20;;;;;;5035689;28;20076;-70
2023/07/28 08:22:52;;;;;;;2.67;1.42;;;22.50;78.00;;;;;;5035572;28;20022;-70
2023/07/28 08:25:19;;;;;;;2.85;1.48;;;22.60;77.40;;;;;;5035298;28;20057;-68
2023/07/28 08:27:44;;;;;;;2.33;1.20;;;22.60;77.70;;;;;;5035269;28;20420;-68
2023/07/28 08:30:11;;;;;;;4.68;1.40;;;22.70;77.10;;;;;;5035119;28;20025;-70
2023/07/28 08:32:37;;;;;;;3.30;1.48;;;22.70;77.10;;;;;;5035451;28;20381;-69
2023/07/28 08:35:03;;;;;;;3.90;1.50;;;22.80;76.80;;;;;;5035505;28;20100;-70
2023/07/28 08:37:29;;;;;;;3.08;1.20;;;22.80;76.60;;;;;;5035495;28;20025;-69
2023/07/28 08:39:55;;;;;;;4.65;1.40;;;22.90;76.50;;;;;;5034955;28;20036;-70
2023/07/28 08:42:24;;;;;;;4.38;1.55;;;23.00;77.90;;;;;;5034957;28;20050;-69
2023/07/28 08:44:52;;;;;;;3.85;1.45;;;23.00;77.60;;;;;;5035452;28;20377;-68
2023/07/28 08:47:18;;;;;;;5.70;1.20;;;23.10;77.70;;;;;;5035011;28;20090;-68
2023/07/28 08:49:44;;;;;;;2.85;1.40;;;23.10;78.80;;;;;;5035119;28;20093;-68
2023/07/28 08:52:10;;;;;;;2.47;1.52;;;23.10;78.50;;;;;;5035121;28;20065;-69
2023/07/28 08:54:36;;;;;;;1.60;1.30;;;23.20;78.50;;;;;;5034915;28;20021;-69
2023/07/28 08:57:02;;;;;;;4.65;1.40;;;23.30;77.90;;;;;;5035040;28;20072;-68
2023/07/28 08:59:29;;;;;;;3.38;1.30;;;23.30;77.40;;;;;;5034827;28;20477;-70
2023/07/28 09:02:00;;;;;;;2.50;1.20;;;23.40;76.80;;;;;;5034963;28;20096;-68
2023/07/28 09:04:26;;;;;;;3.25;1.35;;;23.40;77.00;;;;;;5034727;28;20030;-69
2023/07/28 09:06:51;;;;;;;2.78;1.15;;;23.50;77.90;;;;;;5035471;28;20041;-70
2023/07/28 09:09:24;;;;;;;3.65;1.35;;;23.50;78.60;;;;;;5035018;28;20021;-69
2023/07/28 09:11:51;;;;;;;1.83;1.25;;;23.60;79.20;;;;;;5035105;28;20026;-69
2023/07/28 09:14:19;;;;;;;2.33;1.20;;;23.70;79.20;;;;;;5034813;28;20053;-69
2023/07/28 09:16:48;;;;;;;1.65;1.42;;;23.70;78.30;;;;;;5034631;28;20029;-69
2023/07/28 09:19:14;;;;;;;4.07;1.40;;;23.80;78.20;;;;;;5034814;28;20033;-68
2023/07/28 09:21:45;;;;;;;1.10;1.00;;;23.90;77.70;;;;;;5034658;28;20036;-70
2023/07/28 09:24:12;;;;;;;2.65;1.30;;;23.90;77.10;;;;;;5034962;28;20079;-68
2023/07/28 09:26:40;;;;;;;1.70;1.33;;;23.90;77.70;;;;;;5034647;28;20034;-68
2023/07/28 09:29:31;;;;;;;3.05;1.83;;;24.00;77.50;;;;;;5034415;28;20041;-68
2023/07/28 09:32:05;;;;;;;6.05;1.40;;;24.00;77.30;;;;;;5034563;28;20030;-68
2023/07/28 09:34:30;;;;;;;1.50;1.10;;;24.10;77.50;;;;;;5034550;28;20033;-68
2023/07/28 09:36:57;;;;;;;2.33;1.27;;;24.20;77.50;;;;;;5034214;28;20026;-69
2023/07/28 09:39:25;;;;;;;2.60;1.20;;;24.20;77.00;;;;;;5034207;28;20087;-69
2023/07/28 09:41:51;;;;;;;1.83;1.23;;;24.20;76.60;;;;;;5033867;28;20049;-69
2023/07/28 09:44:17;;;;;;;1.58;1.20;;;24.20;77.00;;;;;;5034234;28;20104;-69
2023/07/28 09:46:54;;;;;;;2.67;1.20;;;24.20;77.50;;;;;;5033869;28;20147;-69
2023/07/28 09:49:42;;;;;;;5.10;1.55;;;24.20;77.60;;;;;;5033917;28;20060;-68
2023/07/28 09:52:11;;;;;;;3.92;1.58;;;24.20;77.90;;;;;;5033899;28;20022;-70
2023/07/28 09:54:40;;;;;;;3.63;1.42;;;24.30;78.20;;;;;;5033677;28;20057;-68
2023/07/28 09:57:13;;;;;;;2.20;1.50;;;24.20;77.00;;;;;;5033772;28;20030;-69
2023/07/28 09:59:41;;;;;;;2.58;1.10;;;24.20;77.10;;;;;;5033968;28;20025;-69
2023/07/28 10:02:08;;;;;;;2.35;1.50;;;24.20;77.00;;;;;;5033753;28;20027;-70
2023/07/28 10:04:35;;;;;;;3.17;1.20;;;24.20;77.90;;;;;;5033313;28;20036;-70
2023/07/28 10:07:02;;;;;;;3.08;1.30;;;24.30;78.40;;;;;;5033545;28;20030;-69
2023/07/28 10:09:33;;;;;;;2.28;1.52;;;24.30;78.30;;;;;;5033796;28;20029;-69
2023/07/28 10:12:00;;;;;;;4.38;1.58;;;24.30;78.70;;;;;;5033176;28;20052;-69
2023/07/28 10:14:39;;;;;;;4.80;1.48;;;24.40;79.20;;;;;;5033936;28;20029;-69
2023/07/28 10:17:06;;;;;;;3.78;1.35;;;24.40;79.50;;;;;;5033565;28;20049;-69
2023/07/28 10:19:39;;;;;;;2.15;1.40;;;24.40;79.10;;;;;;5033682;28;20478;-69
2023/07/28 10:22:10;;;;;;;5.25;2.03;;;24.40;78.70;;;;;;5033537;28;20056;-69
2023/07/28 10:24:53;;;;;;;1.88;1.40;;;24.40;78.60;;;;;;5033647;28;20028;-68
2023/07/28 10:27:36;;;;;;;3.50;1.67;;;24.40;78.20;;;;;;5033536;28;20040;-69
2023/07/28 10:30:13;;;;;;;2.38;1.50;;;24.50;78.90;;;;;;5033454;28;20132;-69
2023/07/28 10:32:43;;;;;;;3.58;1.20;;;24.50;78.80;;;;;;5033134;28;20025;-69
2023/07/28 10:35:10;;;;;;;2.78;1.40;;;24.60;78.00;;;;;;5033265;28;20021;-69
2023/07/28 10:37:36;;;;;;;2.70;1.52;;;24.60;77.70;;;;;;5033259;28;20029;-69
2023/07/28 10:40:27;;;;;;;2.13;1.40;;;24.60;77.40;;;;;;5033246;28;20022;-69
2023/07/28 10:42:54;;;;;;;6.53;1.67;;;24.60;77.70;;;;;;5033095;28;20049;-69
2023/07/28 10:45:22;;;;;;;3.80;1.40;;;24.50;77.70;;;;;;5033074;28;20014;-69
2023/07/28 10:47:49;;;;;;;5.00;1.55;;;24.50;77.70;;;;;;5033121;28;20496;-69
2023/07/28 10:50:15;;;;;;;4.72;1.60;;;24.50;78.40;;;;;;5031841;28;20022;-69
2023/07/28 10:52:45;;;;;;;1.60;1.50;;;24.50;77.90;;;;;;5033062;28;20029;-69
2023/07/28 10:55:17;;;;;;;3.50;1.45;;;24.50;78.00;;;;;;5033100;28;20021;-69
2023/07/28 10:57:43;;;;;;;;;;;24.50;78.10;;;;;;5033501;28;20028;-70
2023/07/28 11:00:12;;;;;;;3.15;1.67;;;24.50;77.90;;;;;;5032969;28;19940;-69
2023/07/28 11:02:48;;;;;;;5.85;1.63;;;24.50;78.10;;;;;;5032665;28;20068;-69
2023/07/28 11:05:21;;;;;;;3.63;1.83;;;24.50;78.50;;;;;;5032891;28;20478;-70
2023/07/28 11:07:48;;;;;;;2.70;1.13;;;24.60;79.00;;;;;;5032602;28;20092;-68
2023/07/28 11:10:15;;;;;;;3.08;1.23;;;24.60;78.70;;;;;;5032815;28;20029;-69
2023/07/28 11:12:48;;;;;;;1.55;1.17;;;24.60;78.30;;;;;;5031711;28;20025;-69
2023/07/28 11:15:16;;;;;;;4.15;1.20;;;24.60;78.20;;;;;;5030019;28;20079;-69
2023/07/28 11:17:45;;;;;;;3.00;1.35;;;24.70;78.80;;;;;;5030741;28;20029;-69
2023/07/28 11:20:18;;;;;;;2.45;1.35;;;24.70;79.00;;;;;;5032832;28;20053;-68
2023/07/28 11:22:45;;;;;;;2.95;1.10;;;24.70;80.00;;;;;;5034178;28;20044;-69
2023/07/28 11:25:11;;;;;;;4.20;1.55;;;24.70;78.90;;;;;;5036944;28;20049;-69
2023/07/28 11:27:38;;;;;;;2.03;1.33;;;24.80;78.70;;;;;;5036426;28;20112;-69
2023/07/28 11:30:07;;;;;;;2.45;1.40;;;24.90;79.00;;;;;;5036605;28;20034;-70
2023/07/28 11:32:35;;;;;;;2.92;1.73;;;25.00;79.60;;;;;;5036770;28;20028;-69
2023/07/28 11:35:14;;;;;;;3.22;1.60;;;25.00;79.70;;;;;;5036528;28;20029;-68
2023/07/28 11:37:42;;;;;;;6.30;1.58;;;25.10;79.20;;;;;;5035675;28;20056;-69
2023/07/28 11:40:11;;;;;;;2.03;1.38;;;25.10;80.10;;;;;;5033786;28;20025;-69
2023/07/28 11:42:45;;;;;;;4.55;1.33;;;25.20;79.10;;;;;;5033392;28;20509;-69
2023/07/28 11:45:13;;;;;;;4.10;1.42;;;25.30;79.20;;;;;;5035345;28;20025;-69
2023/07/28 11:47:39;;;;;;;1.80;1.23;;;25.40;78.00;;;;;;5036424;28;20056;-69
2023/07/28 11:50:05;;;;;;;1.70;1.17;;;25.40;77.10;;;;;;5036501;28;20057;-68
2023/07/28 11:52:31;;;;;;;2.65;1.77;;;25.50;77.30;;;;;;5036016;28;20535;-68
2023/07/28 11:55:00;;;;;;;3.88;1.55;;;25.60;77.80;;;;;;5036205;28;20018;-69
2023/07/28 11:57:27;;;;;;;2.35;1.38;;;25.70;76.80;;;;;;5036177;28;20033;-68
2023/07/28 11:59:54;;;;;;;3.50;1.67;;;25.80;75.80;;;;;;5036137;28;20347;-68
2023/07/28 12:02:30;;;;;;;2.20;1.30;;;25.80;75.50;;;;;;5035995;28;20433;-69
2023/07/28 12:04:58;;;;;;;1.70;1.20;;;25.80;75.90;;;;;;5036009;28;20138;-70
2023/07/28 12:07:33;;;;;;;1.55;1.23;;;25.80;74.70;;;;;;5036305;28;20033;-66
2023/07/28 12:10:06;;;;;;;4.18;1.40;;;25.90;75.00;;;;;;5036197;28;20029;-66
2023/07/28 12:12:39;;;;;;;2.60;1.40;;;25.90;75.00;;;;;;5035968;28;20025;-67
2023/07/28 12:15:21;;;;;;;3.25;1.67;;;26.00;73.40;;;;;;5035923;28;20083;-67
2023/07/28 12:18:15;;;;;;;2.72;1.42;;;26.00;72.40;;;;;;5036131;28;20068;-68
2023/07/28 12:20:49;;;;;;;3.80;1.13;;;26.10;74.30;;;;;;5036020;28;20100;-70
2023/07/28 12:23:20;;;;;;;3.10;1.27;;;26.10;75.80;;;;;;5036020;28;20040;-70
2023/07/28 12:25:46;;;;;;;4.05;1.60;;;26.20;76.00;;;;;;5035961;28;20022;-69
2023/07/28 12:28:13;;;;;;;3.53;1.63;;;26.20;76.30;;;;;;5035541;28;20041;-68
2023/07/28 12:30:39;;;;;;;9.57;1.60;;;26.30;74.00;;;;;;5035860;28;20017;-67
2023/07/28 12:33:05;;;;;;;1.88;1.42;;;26.30;73.00;;;;;;5035781;28;20029;-68
2023/07/28 12:35:34;;;;;;;3.97;1.60;;;26.40;74.30;;;;;;5035028;28;20025;-68
2023/07/28 12:38:01;;;;;;;3.30;1.40;;;26.50;73.60;;;;;;5034217;28;20727;-70
2023/07/28 12:40:29;;;;;;;5.20;1.50;;;26.50;73.90;;;;;;5035098;28;20024;-70
2023/07/28 12:42:56;;;;;;;3.17;1.50;;;26.60;72.60;;;;;;5034425;28;20062;-70
2023/07/28 12:45:22;;;;;;;4.15;1.40;;;26.60;73.10;;;;;;5035464;28;20029;-69
2023/07/28 12:47:47;;;;;;;2.42;1.42;;;26.60;73.40;;;;;;5034980;28;20477;-69
2023/07/28 12:50:13;;;;;;;2.00;1.38;;;26.70;71.70;;;;;;5034740;28;20500;-70
2023/07/28 12:52:39;;;;;;;2.85;1.42;;;26.70;71.90;;;;;;5035205;28;20022;-68